Accueil
METAR-TAF:

METAR-TAF

Aéroports :

Mount Vernon Airport

Mount Vernon, Illinois, États-Unis

latitude: 38-19N, longitude: 088-52W, altitude: 146 m

Observation

Le bulletin a été fait il y a 1 heure et 8 minutes, à 03:56 UTC
Vent calme
Température 23°C
Humidité 78%
Pression 1016 hPa
Visibilité: 16.1 km
Ciel clair

METAR: KMVN 150356Z AUTO 00000KT 10SM CLR 23/19 A3001 RMK AO2 SLP160 T02330189

Heure: 00:04 (05:04 UTC)

Prévision

Le bulletin a été fait il y a 5 heures et 25 minutes, à 23:39 UTC
Prévision valable du 15 à 00 UTC au 15 à 24 UTC
Vent 3 kt de direction variable
Visibilité: 10 km
Quelques nuages à une hauteur de 4500 ft
A partir de 15 à 1400 UTC
Vent 8 kt de sud
Visibilité: 10 km
Nuages épars à une hauteur de 25000 ft

TAF: KMVN 142339Z 1500/1524 VRB03KT P6SM FEW045 FM151400 17008KT P6SM SCT250

Observations et prévisions météorologiques de plus de 4000 aéroports (messages METAR et TAF).

Les stations disponibles sont représentées par des disques jaunes et rouges sur la carte.

Passer la souris dessus pour voir le nom de la station.

Cliquer dessus pour voir les observations et prévisions météorologiques.

Pour changer de carte: cliquez sur les boutons verts avec une croix noire pour zoomer, sur le bouton vert avec un tiret pour effectuer un zoom arrière, ou sur les flèches vertes pour les cartes adjacentes.


METAR-TAF: